SWA6299 TIST-SVMI
Flight info
| Callsign | SWA6299 |
|---|---|
| Flight time | 1h 19m |
| Altitude | 36000 |
| Route | PALCO7 PALCO RTE6 SJU RTE12 JOSHE N779 ARMUR UN779 MIDUR PULPO1 |
| Aircraft | B738/M-SDE2E3FGHIRWXY/LB1 |
Departure
| Time | 2026-05-06 21:40 |
|---|---|
| Airport | Cyril E. King Airport (TIST) |
Arrival
| Time | 2026-05-06 22:59 |
|---|---|
| Airport | Maiquetía Simón Bolívar International Airport (SVMI) |
| Time | Latitude | Longitude | Altitude | Speed | Heading |
|---|---|---|---|---|---|
| 2026-05-06 21:09 | 18.33579 | -64.97160 | 32 ft | 0 kts | 188° |
| 2026-05-06 21:29 | 18.33583 | -64.97160 | 32 ft | 2 kts | 189° |
| 2026-05-06 21:29 | 18.33598 | -64.97157 | 32 ft | 2 kts | 188° |
| 2026-05-06 21:30 | 18.33612 | -64.97155 | 32 ft | 2 kts | 188° |
| 2026-05-06 21:30 | 18.33627 | -64.97153 | 32 ft | 2 kts | 189° |
| 2026-05-06 21:30 | 18.33642 | -64.97148 | 32 ft | 2 kts | 216° |
| 2026-05-06 21:30 | 18.33652 | -64.97136 | 32 ft | 2 kts | 242° |
| 2026-05-06 21:31 | 18.33657 | -64.97124 | 32 ft | 0 kts | 264° |
| 2026-05-06 21:31 | 18.33657 | -64.97117 | 32 ft | 1 kts | 268° |
| 2026-05-06 21:31 | 18.33657 | -64.97115 | 32 ft | 0 kts | 267° |
| 2026-05-06 21:35 | 18.33657 | -64.97120 | 32 ft | 3 kts | 271° |
| 2026-05-06 21:35 | 18.33657 | -64.97176 | 32 ft | 9 kts | 268° |
| 2026-05-06 21:36 | 18.33654 | -64.97261 | 30 ft | 12 kts | 266° |
| 2026-05-06 21:36 | 18.33646 | -64.97354 | 28 ft | 12 kts | 263° |
| 2026-05-06 21:36 | 18.33636 | -64.97446 | 27 ft | 12 kts | 262° |
| 2026-05-06 21:36 | 18.33623 | -64.97537 | 25 ft | 12 kts | 261° |
| 2026-05-06 21:37 | 18.33611 | -64.97629 | 23 ft | 12 kts | 265° |
| 2026-05-06 21:37 | 18.33606 | -64.97719 | 23 ft | 12 kts | 268° |
| 2026-05-06 21:37 | 18.33603 | -64.97811 | 22 ft | 13 kts | 268° |
| 2026-05-06 21:37 | 18.33599 | -64.97913 | 22 ft | 14 kts | 267° |
| 2026-05-06 21:38 | 18.33594 | -64.98016 | 22 ft | 14 kts | 267° |
| 2026-05-06 21:38 | 18.33590 | -64.98119 | 22 ft | 14 kts | 268° |
| 2026-05-06 21:38 | 18.33585 | -64.98222 | 22 ft | 13 kts | 267° |
| 2026-05-06 21:38 | 18.33591 | -64.98307 | 22 ft | 8 kts | 302° |
| 2026-05-06 21:39 | 18.33602 | -64.98317 | 22 ft | 0 kts | 328° |
| 2026-05-06 21:39 | 18.33603 | -64.98318 | 22 ft | 1 kts | 329° |
| 2026-05-06 21:39 | 18.33645 | -64.98330 | 22 ft | 10 kts | 355° |
| 2026-05-06 21:40 | 18.33695 | -64.98249 | 22 ft | 33 kts | 86° |
| 2026-05-06 21:40 | 18.33717 | -64.97715 | 23 ft | 111 kts | 88° |
| 2026-05-06 21:40 | 18.33761 | -64.96668 | 75 ft | 168 kts | 90° |
| 2026-05-06 21:40 | 18.33807 | -64.95418 | 799 ft | 176 kts | 88° |
| 2026-05-06 21:41 | 18.33906 | -64.94110 | 1384 ft | 189 kts | 88° |
| 2026-05-06 21:41 | 18.34003 | -64.92639 | 1703 ft | 215 kts | 88° |
| 2026-05-06 21:41 | 18.34102 | -64.91016 | 2263 ft | 231 kts | 89° |
| 2026-05-06 21:41 | 18.33921 | -64.89349 | 3038 ft | 240 kts | 111° |
| 2026-05-06 21:42 | 18.32956 | -64.87867 | 3777 ft | 253 kts | 140° |
| 2026-05-06 21:42 | 18.31397 | -64.87036 | 4664 ft | 261 kts | 166° |
| 2026-05-06 21:42 | 18.29582 | -64.87064 | 5545 ft | 271 kts | 195° |
| 2026-05-06 21:42 | 18.27999 | -64.88071 | 6444 ft | 279 kts | 225° |
| 2026-05-06 21:43 | 18.27059 | -64.89867 | 7289 ft | 289 kts | 256° |
| 2026-05-06 21:43 | 18.27036 | -64.91989 | 8197 ft | 294 kts | 276° |
| 2026-05-06 21:43 | 18.27249 | -64.94132 | 8982 ft | 300 kts | 272° |
| 2026-05-06 21:43 | 18.27368 | -64.96302 | 9876 ft | 300 kts | 272° |
| 2026-05-06 21:44 | 18.27392 | -64.98502 | 10524 ft | 310 kts | 262° |
| 2026-05-06 21:44 | 18.26675 | -65.00738 | 10636 ft | 336 kts | 235° |
| 2026-05-06 21:44 | 18.24970 | -65.02386 | 11337 ft | 339 kts | 208° |
| 2026-05-06 21:44 | 18.22816 | -65.03366 | 12025 ft | 345 kts | 201° |
| 2026-05-06 21:45 | 18.20609 | -65.04407 | 12696 ft | 350 kts | 207° |
| 2026-05-06 21:45 | 18.18477 | -65.05609 | 13471 ft | 352 kts | 209° |
| 2026-05-06 21:45 | 18.16347 | -65.06861 | 14129 ft | 356 kts | 210° |
| 2026-05-06 21:45 | 18.14153 | -65.08160 | 14785 ft | 360 kts | 210° |
| 2026-05-06 21:46 | 18.11987 | -65.09457 | 15388 ft | 366 kts | 211° |
| 2026-05-06 21:46 | 18.09761 | -65.10800 | 15944 ft | 372 kts | 211° |
| 2026-05-06 21:46 | 18.07527 | -65.12153 | 16604 ft | 374 kts | 211° |
| 2026-05-06 21:46 | 18.05279 | -65.13512 | 17183 ft | 378 kts | 211° |
| 2026-05-06 21:47 | 18.03004 | -65.14890 | 17768 ft | 382 kts | 211° |
| 2026-05-06 21:47 | 18.00676 | -65.16302 | 18340 ft | 385 kts | 211° |
| 2026-05-06 21:47 | 17.98365 | -65.17704 | 18859 ft | 390 kts | 211° |
| 2026-05-06 21:47 | 17.96023 | -65.19121 | 19328 ft | 395 kts | 211° |
| 2026-05-06 21:48 | 17.93649 | -65.20559 | 19876 ft | 398 kts | 211° |
| 2026-05-06 21:48 | 17.92198 | -65.21439 | 20178 ft | 400 kts | 211° |
| 2026-05-06 21:48 | 17.89784 | -65.22903 | 20654 ft | 404 kts | 211° |
| 2026-05-06 21:48 | 17.87347 | -65.24379 | 21140 ft | 407 kts | 211° |
| 2026-05-06 21:49 | 17.84895 | -65.25864 | 21593 ft | 411 kts | 211° |
| 2026-05-06 21:49 | 17.82444 | -65.27348 | 22029 ft | 414 kts | 211° |
| 2026-05-06 21:49 | 17.79922 | -65.28874 | 22475 ft | 417 kts | 211° |
| 2026-05-06 21:49 | 17.77423 | -65.30386 | 22865 ft | 421 kts | 211° |
| 2026-05-06 21:50 | 17.74888 | -65.31919 | 23287 ft | 424 kts | 211° |
| 2026-05-06 21:50 | 17.72337 | -65.33463 | 23664 ft | 427 kts | 211° |
| 2026-05-06 21:50 | 17.69732 | -65.35037 | 24050 ft | 430 kts | 211° |
| 2026-05-06 21:50 | 17.67162 | -65.36589 | 24466 ft | 432 kts | 211° |
| 2026-05-06 21:51 | 17.64572 | -65.38153 | 24857 ft | 434 kts | 211° |
| 2026-05-06 21:51 | 17.61946 | -65.39738 | 25256 ft | 436 kts | 211° |
| 2026-05-06 21:51 | 17.59303 | -65.41333 | 25645 ft | 437 kts | 211° |
| 2026-05-06 21:51 | 17.56681 | -65.42915 | 26022 ft | 439 kts | 211° |
| 2026-05-06 21:52 | 17.54044 | -65.44507 | 26387 ft | 440 kts | 211° |
| 2026-05-06 21:52 | 17.51388 | -65.46108 | 26747 ft | 442 kts | 212° |
| 2026-05-06 21:52 | 17.48749 | -65.47700 | 27075 ft | 444 kts | 212° |
| 2026-05-06 21:52 | 17.46073 | -65.49313 | 27421 ft | 445 kts | 212° |
| 2026-05-06 21:53 | 17.43398 | -65.50922 | 27722 ft | 447 kts | 212° |
| 2026-05-06 21:53 | 17.40716 | -65.52533 | 28084 ft | 447 kts | 212° |
| 2026-05-06 21:53 | 17.38023 | -65.54157 | 28382 ft | 448 kts | 212° |
| 2026-05-06 21:53 | 17.35336 | -65.55776 | 28695 ft | 449 kts | 212° |
| 2026-05-06 21:54 | 17.32600 | -65.57423 | 28996 ft | 451 kts | 212° |
| 2026-05-06 21:54 | 17.29901 | -65.59046 | 29266 ft | 452 kts | 212° |
| 2026-05-06 21:54 | 17.27201 | -65.60669 | 29543 ft | 453 kts | 212° |
| 2026-05-06 21:54 | 17.24445 | -65.62326 | 29825 ft | 454 kts | 212° |
| 2026-05-06 21:55 | 17.21737 | -65.63954 | 30068 ft | 456 kts | 212° |
| 2026-05-06 21:55 | 17.18992 | -65.65603 | 30321 ft | 457 kts | 212° |
| 2026-05-06 21:55 | 17.16254 | -65.67247 | 30583 ft | 457 kts | 212° |
| 2026-05-06 21:55 | 17.13485 | -65.68909 | 30819 ft | 459 kts | 212° |
| 2026-05-06 21:56 | 17.10710 | -65.70573 | 31047 ft | 460 kts | 212° |
| 2026-05-06 21:56 | 17.07938 | -65.72237 | 31279 ft | 461 kts | 212° |
| 2026-05-06 21:56 | 17.05190 | -65.73885 | 31488 ft | 462 kts | 212° |
| 2026-05-06 21:56 | 17.02417 | -65.75547 | 31699 ft | 463 kts | 212° |
| 2026-05-06 21:57 | 16.99601 | -65.77235 | 31899 ft | 464 kts | 212° |
| 2026-05-06 21:57 | 16.96822 | -65.78897 | 32104 ft | 465 kts | 212° |
| 2026-05-06 21:57 | 16.94022 | -65.80572 | 32272 ft | 466 kts | 212° |
| 2026-05-06 21:57 | 16.91202 | -65.82262 | 32449 ft | 467 kts | 212° |
| 2026-05-06 21:58 | 16.88409 | -65.83933 | 32671 ft | 467 kts | 212° |
| 2026-05-06 21:58 | 16.85591 | -65.85617 | 33019 ft | 463 kts | 212° |
| 2026-05-06 21:58 | 16.82827 | -65.87265 | 33264 ft | 463 kts | 212° |
| 2026-05-06 21:58 | 16.80044 | -65.88927 | 33495 ft | 462 kts | 212° |
| 2026-05-06 21:59 | 16.77264 | -65.90590 | 33779 ft | 460 kts | 212° |
| 2026-05-06 21:59 | 16.74522 | -65.92230 | 34004 ft | 459 kts | 212° |
| 2026-05-06 21:59 | 16.71735 | -65.93895 | 34202 ft | 459 kts | 212° |
| 2026-05-06 21:59 | 16.68983 | -65.95536 | 34441 ft | 458 kts | 212° |
| 2026-05-06 22:00 | 16.66228 | -65.97174 | 34648 ft | 457 kts | 212° |
| 2026-05-06 22:00 | 16.63466 | -65.98817 | 34858 ft | 457 kts | 212° |
| 2026-05-06 22:00 | 16.60723 | -66.00454 | 35085 ft | 456 kts | 212° |
| 2026-05-06 22:00 | 16.58004 | -66.02081 | 35258 ft | 456 kts | 213° |
| 2026-05-06 22:01 | 16.55286 | -66.03708 | 35455 ft | 455 kts | 212° |
| 2026-05-06 22:01 | 16.52537 | -66.05345 | 35653 ft | 454 kts | 212° |
| 2026-05-06 22:01 | 16.49783 | -66.06978 | 35832 ft | 454 kts | 212° |
| 2026-05-06 22:01 | 16.47055 | -66.08591 | 36018 ft | 453 kts | 212° |
| 2026-05-06 22:02 | 16.41589 | -66.11853 | 36058 ft | 454 kts | 213° |
| 2026-05-06 22:02 | 16.36145 | -66.15094 | 36058 ft | 452 kts | 213° |
| 2026-05-06 22:03 | 16.30687 | -66.18339 | 36057 ft | 452 kts | 213° |
| 2026-05-06 22:03 | 16.25286 | -66.21548 | 36055 ft | 452 kts | 213° |
| 2026-05-06 22:04 | 16.19818 | -66.24794 | 36054 ft | 452 kts | 213° |
| 2026-05-06 22:04 | 16.14359 | -66.28031 | 36053 ft | 452 kts | 213° |
| 2026-05-06 22:05 | 16.08933 | -66.31248 | 36052 ft | 452 kts | 213° |
| 2026-05-06 22:05 | 16.03500 | -66.34466 | 36051 ft | 452 kts | 213° |
| 2026-05-06 22:06 | 15.98054 | -66.37690 | 36050 ft | 452 kts | 213° |
| 2026-05-06 22:06 | 15.92606 | -66.40913 | 36049 ft | 452 kts | 213° |
| 2026-05-06 22:07 | 15.87163 | -66.44130 | 36048 ft | 452 kts | 213° |
| 2026-05-06 22:07 | 15.81681 | -66.47366 | 36047 ft | 453 kts | 212° |
| 2026-05-06 22:08 | 15.76215 | -66.50594 | 36045 ft | 453 kts | 213° |
| 2026-05-06 22:08 | 15.70760 | -66.53813 | 36044 ft | 453 kts | 213° |
| 2026-05-06 22:09 | 15.65298 | -66.57034 | 36043 ft | 453 kts | 213° |
| 2026-05-06 22:09 | 15.59862 | -66.60239 | 36037 ft | 453 kts | 213° |
| 2026-05-06 22:10 | 15.54126 | -66.62981 | 36035 ft | 459 kts | 199° |
| 2026-05-06 22:10 | 15.50963 | -66.63573 | 36038 ft | 464 kts | 187° |
| 2026-05-06 22:10 | 15.47772 | -66.63690 | 36036 ft | 467 kts | 184° |
| 2026-05-06 22:11 | 15.41299 | -66.63865 | 36033 ft | 466 kts | 186° |
| 2026-05-06 22:11 | 15.34847 | -66.64125 | 36024 ft | 466 kts | 185° |
| 2026-05-06 22:12 | 15.28357 | -66.64352 | 36022 ft | 466 kts | 185° |
| 2026-05-06 22:12 | 15.21910 | -66.64575 | 36020 ft | 466 kts | 185° |
| 2026-05-06 22:13 | 15.15484 | -66.64794 | 36018 ft | 466 kts | 185° |
| 2026-05-06 22:13 | 15.09000 | -66.65014 | 36016 ft | 466 kts | 185° |
| 2026-05-06 22:14 | 15.02521 | -66.65231 | 36014 ft | 467 kts | 185° |
| 2026-05-06 22:14 | 14.96077 | -66.65447 | 36011 ft | 467 kts | 185° |
| 2026-05-06 22:15 | 14.89617 | -66.65663 | 36010 ft | 466 kts | 185° |
| 2026-05-06 22:15 | 14.83149 | -66.65878 | 36008 ft | 466 kts | 185° |
| 2026-05-06 22:16 | 14.76701 | -66.66093 | 36005 ft | 467 kts | 185° |
| 2026-05-06 22:16 | 14.70245 | -66.66310 | 36003 ft | 467 kts | 185° |
| 2026-05-06 22:17 | 14.63767 | -66.66526 | 36001 ft | 467 kts | 185° |
| 2026-05-06 22:17 | 14.57314 | -66.66741 | 35999 ft | 467 kts | 185° |
| 2026-05-06 22:18 | 14.50843 | -66.66957 | 35997 ft | 466 kts | 185° |
| 2026-05-06 22:18 | 14.44373 | -66.67184 | 35994 ft | 466 kts | 186° |
| 2026-05-06 22:19 | 14.37982 | -66.67716 | 35993 ft | 465 kts | 188° |
| 2026-05-06 22:19 | 14.31519 | -66.68292 | 35991 ft | 465 kts | 188° |
| 2026-05-06 22:20 | 14.25110 | -66.68831 | 35989 ft | 465 kts | 188° |
| 2026-05-06 22:20 | 14.18699 | -66.69383 | 35987 ft | 465 kts | 188° |
| 2026-05-06 22:21 | 14.12280 | -66.69923 | 35985 ft | 465 kts | 188° |
| 2026-05-06 22:21 | 14.05835 | -66.70464 | 35983 ft | 465 kts | 188° |
| 2026-05-06 22:22 | 13.99415 | -66.71003 | 35981 ft | 465 kts | 188° |
| 2026-05-06 22:22 | 13.92991 | -66.71541 | 35979 ft | 465 kts | 188° |
| 2026-05-06 22:23 | 13.86836 | -66.72056 | 35977 ft | 465 kts | 188° |
| 2026-05-06 22:23 | 13.80415 | -66.72592 | 35975 ft | 465 kts | 188° |
| 2026-05-06 22:24 | 13.74024 | -66.73127 | 35973 ft | 465 kts | 188° |
| 2026-05-06 22:24 | 13.67606 | -66.73663 | 35972 ft | 465 kts | 188° |
| 2026-05-06 22:25 | 13.61153 | -66.74202 | 35970 ft | 465 kts | 188° |
| 2026-05-06 22:25 | 13.54735 | -66.74738 | 35969 ft | 465 kts | 187° |
| 2026-05-06 22:26 | 13.48320 | -66.75272 | 35967 ft | 465 kts | 187° |
| 2026-05-06 22:26 | 13.41922 | -66.75805 | 35965 ft | 465 kts | 188° |
| 2026-05-06 22:27 | 13.35486 | -66.76342 | 35964 ft | 466 kts | 188° |
| 2026-05-06 22:27 | 13.29056 | -66.76877 | 35963 ft | 466 kts | 187° |
| 2026-05-06 22:28 | 13.22625 | -66.77412 | 35962 ft | 465 kts | 187° |
| 2026-05-06 22:28 | 13.16216 | -66.77944 | 35962 ft | 465 kts | 187° |
| 2026-05-06 22:29 | 13.09776 | -66.78480 | 35960 ft | 465 kts | 187° |
| 2026-05-06 22:29 | 13.03353 | -66.79014 | 35959 ft | 465 kts | 187° |
| 2026-05-06 22:30 | 12.96908 | -66.79549 | 35958 ft | 465 kts | 187° |
| 2026-05-06 22:30 | 12.90446 | -66.80084 | 35957 ft | 465 kts | 187° |
| 2026-05-06 22:31 | 12.84046 | -66.80615 | 35956 ft | 465 kts | 187° |
| 2026-05-06 22:31 | 12.77608 | -66.81150 | 35955 ft | 465 kts | 187° |
| 2026-05-06 22:32 | 12.71219 | -66.81679 | 35955 ft | 465 kts | 187° |
| 2026-05-06 22:32 | 12.64799 | -66.82210 | 35954 ft | 465 kts | 187° |
| 2026-05-06 22:33 | 12.58353 | -66.82744 | 35953 ft | 465 kts | 187° |
| 2026-05-06 22:33 | 12.51937 | -66.83276 | 35953 ft | 465 kts | 187° |
| 2026-05-06 22:34 | 12.45524 | -66.83805 | 35941 ft | 465 kts | 187° |
| 2026-05-06 22:34 | 12.39113 | -66.84335 | 35941 ft | 464 kts | 187° |
| 2026-05-06 22:35 | 12.32673 | -66.84868 | 35941 ft | 465 kts | 187° |
| 2026-05-06 22:35 | 12.26252 | -66.85398 | 35941 ft | 465 kts | 187° |
| 2026-05-06 22:36 | 12.19853 | -66.85927 | 35941 ft | 465 kts | 187° |
| 2026-05-06 22:36 | 12.13403 | -66.86459 | 35944 ft | 465 kts | 187° |
| 2026-05-06 22:37 | 12.07020 | -66.86986 | 35932 ft | 465 kts | 187° |
| 2026-05-06 22:37 | 12.00582 | -66.87517 | 35932 ft | 465 kts | 187° |
| 2026-05-06 22:38 | 11.94186 | -66.88042 | 35270 ft | 461 kts | 187° |
| 2026-05-06 22:38 | 11.91029 | -66.88297 | 34496 ft | 461 kts | 186° |
| 2026-05-06 22:38 | 11.87851 | -66.88556 | 33661 ft | 461 kts | 186° |
| 2026-05-06 22:39 | 11.84666 | -66.88818 | 32803 ft | 462 kts | 186° |
| 2026-05-06 22:39 | 11.81455 | -66.89225 | 31854 ft | 462 kts | 193° |
| 2026-05-06 22:39 | 11.78383 | -66.90086 | 30939 ft | 461 kts | 201° |
| 2026-05-06 22:39 | 11.75459 | -66.91410 | 29929 ft | 461 kts | 211° |
| 2026-05-06 22:40 | 11.72785 | -66.93145 | 28939 ft | 462 kts | 216° |
| 2026-05-06 22:40 | 11.70172 | -66.95015 | 27959 ft | 463 kts | 216° |
| 2026-05-06 22:40 | 11.67524 | -66.96860 | 27229 ft | 461 kts | 215° |
| 2026-05-06 22:40 | 11.64853 | -66.98683 | 26503 ft | 465 kts | 215° |
| 2026-05-06 22:41 | 11.59563 | -67.02318 | 25005 ft | 456 kts | 215° |
| 2026-05-06 22:41 | 11.56967 | -67.04109 | 24263 ft | 451 kts | 215° |
| 2026-05-06 22:41 | 11.54398 | -67.05881 | 23524 ft | 447 kts | 214° |
| 2026-05-06 22:42 | 11.51833 | -67.07649 | 22779 ft | 443 kts | 214° |
| 2026-05-06 22:42 | 11.49319 | -67.09382 | 22044 ft | 439 kts | 214° |
| 2026-05-06 22:42 | 11.46799 | -67.11121 | 21304 ft | 435 kts | 214° |
| 2026-05-06 22:42 | 11.44325 | -67.12827 | 20573 ft | 432 kts | 214° |
| 2026-05-06 22:43 | 11.41853 | -67.14532 | 19839 ft | 428 kts | 214° |
| 2026-05-06 22:43 | 11.39416 | -67.16213 | 19107 ft | 425 kts | 213° |
| 2026-05-06 22:43 | 11.36991 | -67.17888 | 18386 ft | 421 kts | 213° |
| 2026-05-06 22:43 | 11.34590 | -67.19534 | 17647 ft | 419 kts | 211° |
| 2026-05-06 22:44 | 11.32019 | -67.20919 | 16893 ft | 414 kts | 200° |
| 2026-05-06 22:44 | 11.29334 | -67.21729 | 16180 ft | 407 kts | 187° |
| 2026-05-06 22:44 | 11.26546 | -67.21905 | 15494 ft | 399 kts | 177° |
| 2026-05-06 22:44 | 11.23767 | -67.21820 | 14794 ft | 394 kts | 176° |
| 2026-05-06 22:45 | 11.21091 | -67.21764 | 14125 ft | 388 kts | 177° |
| 2026-05-06 22:45 | 11.18403 | -67.21724 | 13449 ft | 383 kts | 176° |
| 2026-05-06 22:45 | 11.15796 | -67.21675 | 12794 ft | 377 kts | 176° |
| 2026-05-06 22:45 | 11.13213 | -67.21617 | 12164 ft | 370 kts | 176° |
| 2026-05-06 22:46 | 11.10651 | -67.21560 | 11516 ft | 364 kts | 176° |
| 2026-05-06 22:46 | 11.08172 | -67.21515 | 11088 ft | 353 kts | 179° |
| 2026-05-06 22:46 | 11.05842 | -67.21914 | 10771 ft | 334 kts | 198° |
| 2026-05-06 22:46 | 11.03840 | -67.22951 | 10447 ft | 314 kts | 206° |
| 2026-05-06 22:47 | 11.01970 | -67.23978 | 10104 ft | 297 kts | 204° |
| 2026-05-06 22:47 | 11.00175 | -67.24895 | 9617 ft | 288 kts | 203° |
| 2026-05-06 22:47 | 10.98396 | -67.25804 | 9234 ft | 284 kts | 204° |
| 2026-05-06 22:47 | 10.96648 | -67.26703 | 8868 ft | 281 kts | 204° |
| 2026-05-06 22:48 | 10.94896 | -67.27595 | 8508 ft | 278 kts | 204° |
| 2026-05-06 22:48 | 10.93203 | -67.28457 | 8162 ft | 275 kts | 203° |
| 2026-05-06 22:48 | 10.91490 | -67.29327 | 7812 ft | 272 kts | 203° |
| 2026-05-06 22:48 | 10.89811 | -67.30180 | 7467 ft | 269 kts | 203° |
| 2026-05-06 22:49 | 10.88150 | -67.31024 | 7126 ft | 266 kts | 203° |
| 2026-05-06 22:49 | 10.86516 | -67.31853 | 6790 ft | 264 kts | 203° |
| 2026-05-06 22:49 | 10.84874 | -67.32687 | 6453 ft | 261 kts | 203° |
| 2026-05-06 22:49 | 10.83255 | -67.33508 | 6121 ft | 259 kts | 203° |
| 2026-05-06 22:50 | 10.81665 | -67.34316 | 5793 ft | 256 kts | 203° |
| 2026-05-06 22:50 | 10.80068 | -67.35127 | 5463 ft | 254 kts | 203° |
| 2026-05-06 22:50 | 10.78488 | -67.35912 | 5166 ft | 258 kts | 199° |
| 2026-05-06 22:50 | 10.76751 | -67.36227 | 4905 ft | 254 kts | 170° |
| 2026-05-06 22:51 | 10.75147 | -67.35561 | 4676 ft | 250 kts | 146° |
| 2026-05-06 22:51 | 10.73656 | -67.34656 | 4421 ft | 251 kts | 153° |
| 2026-05-06 22:51 | 10.72052 | -67.33961 | 4168 ft | 249 kts | 156° |
| 2026-05-06 22:51 | 10.70460 | -67.33302 | 3968 ft | 247 kts | 156° |
| 2026-05-06 22:52 | 10.68871 | -67.32652 | 3962 ft | 248 kts | 156° |
| 2026-05-06 22:52 | 10.67267 | -67.32003 | 3956 ft | 247 kts | 157° |
| 2026-05-06 22:52 | 10.65688 | -67.31368 | 3960 ft | 238 kts | 157° |
| 2026-05-06 22:52 | 10.64220 | -67.30779 | 3949 ft | 219 kts | 157° |
| 2026-05-06 22:53 | 10.62859 | -67.30234 | 3954 ft | 200 kts | 156° |
| 2026-05-06 22:53 | 10.61566 | -67.29714 | 3968 ft | 210 kts | 156° |
| 2026-05-06 22:53 | 10.60235 | -67.29017 | 3947 ft | 215 kts | 138° |
| 2026-05-06 22:53 | 10.59415 | -67.27773 | 3956 ft | 217 kts | 107° |
| 2026-05-06 22:54 | 10.59381 | -67.26251 | 3967 ft | 220 kts | 83° |
| 2026-05-06 22:54 | 10.59583 | -67.24707 | 3952 ft | 218 kts | 89° |
| 2026-05-06 22:54 | 10.59650 | -67.23229 | 3944 ft | 200 kts | 90° |
| 2026-05-06 22:54 | 10.59703 | -67.21850 | 3964 ft | 196 kts | 90° |
| 2026-05-06 22:55 | 10.59750 | -67.20479 | 3930 ft | 188 kts | 90° |
| 2026-05-06 22:55 | 10.59793 | -67.19151 | 3730 ft | 186 kts | 90° |
| 2026-05-06 22:55 | 10.59836 | -67.17852 | 3479 ft | 183 kts | 90° |
| 2026-05-06 22:55 | 10.59878 | -67.16560 | 3234 ft | 182 kts | 90° |
| 2026-05-06 22:56 | 10.59920 | -67.15303 | 2999 ft | 178 kts | 90° |
| 2026-05-06 22:56 | 10.59961 | -67.14057 | 2729 ft | 168 kts | 90° |
| 2026-05-06 22:56 | 10.59998 | -67.12945 | 2522 ft | 151 kts | 90° |
| 2026-05-06 22:56 | 10.60032 | -67.11879 | 2325 ft | 152 kts | 90° |
| 2026-05-06 22:57 | 10.60066 | -67.10822 | 2114 ft | 151 kts | 90° |
| 2026-05-06 22:57 | 10.60101 | -67.09756 | 1907 ft | 151 kts | 90° |
| 2026-05-06 22:57 | 10.60136 | -67.08688 | 1700 ft | 150 kts | 90° |
| 2026-05-06 22:57 | 10.60171 | -67.07623 | 1496 ft | 151 kts | 90° |
| 2026-05-06 22:58 | 10.60207 | -67.06556 | 1288 ft | 151 kts | 90° |
| 2026-05-06 22:58 | 10.60236 | -67.05466 | 1081 ft | 154 kts | 90° |
| 2026-05-06 22:58 | 10.60285 | -67.04391 | 896 ft | 151 kts | 89° |
| 2026-05-06 22:58 | 10.60315 | -67.03326 | 671 ft | 150 kts | 92° |
| 2026-05-06 22:59 | 10.60350 | -67.02264 | 471 ft | 152 kts | 88° |
| 2026-05-06 22:59 | 10.60388 | -67.01186 | 264 ft | 151 kts | 90° |
| 2026-05-06 22:59 | 10.60414 | -67.00243 | 239 ft | 104 kts | 87° |
| 2026-05-06 22:59 | 10.60429 | -66.99757 | 218 ft | 36 kts | 89° |
| 2026-05-06 23:00 | 10.60435 | -66.99552 | 209 ft | 27 kts | 89° |
| 2026-05-06 23:00 | 10.60442 | -66.99369 | 202 ft | 25 kts | 88° |
| 2026-05-06 23:00 | 10.60449 | -66.99184 | 192 ft | 27 kts | 90° |
| 2026-05-06 23:00 | 10.60412 | -66.99107 | 188 ft | 10 kts | 181° |
| 2026-05-06 23:01 | 10.60340 | -66.99112 | 190 ft | 9 kts | 183° |
| 2026-05-06 23:01 | 10.60281 | -66.99113 | 192 ft | 8 kts | 178° |
| 2026-05-06 23:01 | 10.60201 | -66.99107 | 195 ft | 13 kts | 173° |
| 2026-05-06 23:01 | 10.60122 | -66.99092 | 198 ft | 9 kts | 167° |
| 2026-05-06 23:02 | 10.60056 | -66.99075 | 201 ft | 10 kts | 166° |
| 2026-05-06 23:02 | 10.59980 | -66.99056 | 204 ft | 11 kts | 165° |
| 2026-05-06 23:02 | 10.59910 | -66.99059 | 208 ft | 10 kts | 223° |
| 2026-05-06 23:02 | 10.59883 | -66.99133 | 214 ft | 13 kts | 256° |
| 2026-05-06 23:03 | 10.59860 | -66.99231 | 219 ft | 15 kts | 256° |
| 2026-05-06 23:03 | 10.59833 | -66.99337 | 223 ft | 14 kts | 255° |
| 2026-05-06 23:03 | 10.59809 | -66.99433 | 227 ft | 13 kts | 256° |
| 2026-05-06 23:03 | 10.59798 | -66.99526 | 231 ft | 13 kts | 275° |
| 2026-05-06 23:04 | 10.59814 | -66.99628 | 232 ft | 14 kts | 276° |
| 2026-05-06 23:04 | 10.59835 | -66.99712 | 233 ft | 10 kts | 313° |
| 2026-05-06 23:04 | 10.59885 | -66.99728 | 232 ft | 5 kts | 44° |
| 2026-05-06 23:04 | 10.59888 | -66.99711 | 231 ft | 2 kts | 91° |
| 2026-05-06 23:05 | 10.59868 | -66.99699 | 232 ft | 5 kts | 180° |
| 2026-05-06 23:05 | 10.59825 | -66.99663 | 233 ft | 11 kts | 115° |
| 2026-05-06 23:05 | 10.59797 | -66.99587 | 232 ft | 10 kts | 110° |
| 2026-05-06 23:05 | 10.59765 | -66.99520 | 232 ft | 9 kts | 140° |
| 2026-05-06 23:06 | 10.59719 | -66.99494 | 233 ft | 6 kts | 122° |
| 2026-05-06 23:06 | 10.59718 | -66.99443 | 231 ft | 8 kts | 77° |
| 2026-05-06 23:06 | 10.59722 | -66.99429 | 231 ft | 0 kts | 76° |